createdAt,value
2023-09-23T00:01:16.839Z,99344.84
2023-09-23T00:06:23.507Z,99344.94
2023-09-23T00:11:27.205Z,99348.34
2023-09-23T00:16:30.908Z,99343.38
2023-09-23T00:21:35.914Z,99349.38
2023-09-23T00:26:39.596Z,99341.00
2023-09-23T00:31:44.718Z,99341.13
2023-09-23T00:36:48.646Z,99335.06
2023-09-23T00:41:53.202Z,99346.22
2023-09-23T00:46:57.960Z,99362.25
2023-09-23T00:52:07.629Z,99354.44
2023-09-23T00:57:14.107Z,99354.75
2023-09-23T01:02:17.917Z,99352.41
2023-09-23T01:07:22.343Z,99340.84
2023-09-23T01:12:26.531Z,99340.00
2023-09-23T01:17:30.360Z,99344.84
2023-09-23T01:22:36.316Z,99348.47
2023-09-23T01:27:40.360Z,99360.06
2023-09-23T01:32:47.246Z,99352.00
2023-09-23T01:37:51.730Z,99370.31
2023-09-23T01:42:55.350Z,99386.72
2023-09-23T01:48:02.473Z,99391.84
2023-09-23T01:53:06.408Z,99381.66
2023-09-23T01:58:10.401Z,99385.50
2023-09-23T02:03:15.036Z,99395.59
2023-09-23T02:08:18.778Z,99399.09
2023-09-23T02:13:23.273Z,99409.63
2023-09-23T02:18:27.583Z,99402.94
2023-09-23T02:23:34.745Z,99419.09
2023-09-23T02:28:38.327Z,99410.22
2023-09-23T02:33:41.963Z,99398.59
2023-09-23T02:38:45.743Z,99408.91
2023-09-23T02:43:49.498Z,99410.63
2023-09-23T02:48:53.083Z,99395.66
2023-09-23T02:53:57.348Z,99424.50
2023-09-23T02:59:02.311Z,99444.75
2023-09-23T03:04:17.785Z,99449.34
2023-09-23T03:09:27.103Z,99448.72
2023-09-23T03:14:37.899Z,99439.03
2023-09-23T03:19:45.527Z,99431.75
2023-09-23T03:24:50.207Z,99440.66
2023-09-23T03:29:55.586Z,99426.16
2023-09-23T03:35:00.603Z,99423.22
2023-09-23T03:40:06.823Z,99415.63
2023-09-23T03:45:11.964Z,99410.16
2023-09-23T03:50:16.319Z,99408.41
2023-09-23T03:55:21.489Z,99438.41
2023-09-23T04:00:29.006Z,99435.47
2023-09-23T04:05:32.761Z,99437.72
2023-09-23T04:10:41.434Z,99429.09
2023-09-23T04:15:45.378Z,99440.31
2023-09-23T04:20:50.323Z,99442.44
2023-09-23T04:25:54.256Z,99444.53
2023-09-23T04:31:00.402Z,99455.28
2023-09-23T04:36:04.724Z,99451.56
2023-09-23T04:41:08.192Z,99457.75
2023-09-23T04:46:16.169Z,99456.69
2023-09-23T04:51:19.860Z,99480.53
2023-09-23T04:56:23.782Z,99476.22
2023-09-23T05:01:27.904Z,99479.72
2023-09-23T05:06:31.532Z,99481.59
2023-09-23T05:11:36.429Z,99491.44
2023-09-23T05:16:40.261Z,99496.00
2023-09-23T05:21:46.398Z,99518.94
2023-09-23T05:26:52.829Z,99537.03
2023-09-23T05:31:57.354Z,99546.63
2023-09-23T05:37:01.209Z,99557.03
2023-09-23T05:42:04.946Z,99553.97
2023-09-23T05:47:10.319Z,99569.81
2023-09-23T05:52:15.900Z,99578.31
2023-09-23T05:57:20.759Z,99589.78
2023-09-23T06:02:25.394Z,99609.09
2023-09-23T06:07:32.716Z,99622.19
2023-09-23T06:12:36.947Z,99618.91
2023-09-23T06:17:40.689Z,99627.97
2023-09-23T06:22:45.290Z,99629.16
2023-09-23T06:27:49.490Z,99636.66
2023-09-23T06:32:53.198Z,99624.50
2023-09-23T06:37:59.385Z,99647.34
2023-09-23T06:43:04.524Z,99651.56
2023-09-23T06:48:08.174Z,99681.88
2023-09-23T06:53:12.158Z,99713.19
2023-09-23T06:58:16.021Z,99711.66
2023-09-23T07:03:20.023Z,99736.03
2023-09-23T07:08:24.257Z,99763.25
2023-09-23T07:13:28.011Z,99774.09
2023-09-23T07:18:32.701Z,99784.03
2023-09-23T07:23:37.829Z,99773.69
2023-09-23T07:28:41.433Z,99809.94
2023-09-23T07:33:46.295Z,99800.22
2023-09-23T07:38:50.247Z,99802.94
2023-09-23T07:43:53.761Z,99823.00
2023-09-23T07:48:59.031Z,99828.44
2023-09-23T07:54:02.651Z,99816.97
2023-09-23T07:59:07.389Z,99821.78
2023-09-23T08:09:42.153Z,99777.00
2023-09-23T08:14:45.669Z,99743.72
2023-09-23T08:19:49.438Z,99714.69
2023-09-23T08:24:53.707Z,99679.56
2023-09-23T08:29:57.652Z,99655.78
2023-09-23T08:35:01.590Z,99668.44
2023-09-23T08:40:12.616Z,99664.84
2023-09-23T08:45:19.052Z,99677.50
2023-09-23T08:50:27.322Z,99684.53
2023-09-23T08:55:31.965Z,99683.13
2023-09-23T09:00:35.751Z,99705.97
2023-09-23T09:05:41.493Z,99697.34
2023-09-23T09:10:45.553Z,99712.66
2023-09-23T09:15:49.210Z,99745.69
2023-09-23T09:20:53.842Z,99754.38
2023-09-23T09:25:57.652Z,99760.81
2023-09-23T09:31:01.542Z,99769.72
2023-09-23T09:36:09.101Z,99768.28
2023-09-23T09:41:20.452Z,99785.50
2023-09-23T09:46:30.906Z,99769.00
2023-09-23T09:51:37.100Z,99771.34
2023-09-23T09:56:42.164Z,99772.41
2023-09-23T10:01:52.345Z,99757.59
2023-09-23T10:06:56.443Z,99762.75
2023-09-23T10:12:03.302Z,99757.84
2023-09-23T10:17:09.333Z,99752.66
2023-09-23T10:22:21.990Z,99749.53
2023-09-23T10:27:27.078Z,99754.53
2023-09-23T10:32:31.041Z,99776.31
2023-09-23T10:37:36.599Z,99778.13
2023-09-23T10:42:47.779Z,99771.03
2023-09-23T10:47:52.040Z,99775.03
2023-09-23T10:52:55.834Z,99765.13
2023-09-23T10:57:59.467Z,99757.25
2023-09-23T11:03:17.277Z,99762.06
2023-09-23T11:08:22.578Z,99777.41
2023-09-23T11:13:27.740Z,99785.63
2023-09-23T11:18:34.899Z,99808.25
2023-09-23T11:23:40.403Z,99815.00
2023-09-23T11:28:44.389Z,99818.16
2023-09-23T11:33:48.562Z,99842.63
2023-09-23T11:38:52.238Z,99835.19
2023-09-23T11:43:55.934Z,99818.66
2023-09-23T11:49:00.466Z,99817.84
2023-09-23T11:54:04.237Z,99816.81
2023-09-23T11:59:09.007Z,99830.84
2023-09-23T12:04:13.510Z,99848.97
2023-09-23T12:09:18.798Z,99895.84
2023-09-23T12:14:22.753Z,99884.63
2023-09-23T12:19:26.418Z,99879.06
2023-09-23T12:24:30.343Z,99876.16
2023-09-23T12:29:33.917Z,99894.09
2023-09-23T12:34:38.013Z,99901.66
2023-09-23T12:39:41.751Z,99890.19
2023-09-23T12:44:45.779Z,99902.06
2023-09-23T12:49:50.513Z,99919.84
2023-09-23T12:54:54.185Z,99913.72
2023-09-23T12:59:57.711Z,99906.53
2023-09-23T13:05:01.537Z,99912.09
2023-09-23T13:10:07.020Z,99929.72
2023-09-23T13:15:10.731Z,99922.53
2023-09-23T13:20:14.607Z,99925.03
2023-09-23T13:25:18.429Z,99924.22
2023-09-23T13:30:22.123Z,99912.81
2023-09-23T13:35:26.119Z,99903.13
2023-09-23T13:40:30.391Z,99903.31
2023-09-23T13:45:34.317Z,99909.38
2023-09-23T13:50:41.246Z,99907.88
2023-09-23T13:55:44.786Z,99910.44
2023-09-23T14:00:48.844Z,99919.50
2023-09-23T14:05:52.348Z,99931.69
2023-09-23T14:10:56.915Z,99935.44
2023-09-23T14:16:00.863Z,99943.47
2023-09-23T14:21:04.667Z,99947.19
2023-09-23T14:26:08.286Z,99934.03
2023-09-23T14:31:12.934Z,99928.31
2023-09-23T14:36:16.777Z,99918.47
2023-09-23T14:41:20.301Z,99908.75
2023-09-23T14:46:23.998Z,99911.22
2023-09-23T14:51:30.396Z,99902.56
2023-09-23T14:56:35.539Z,99914.13
2023-09-23T15:01:47.775Z,99909.38
2023-09-23T15:06:52.866Z,99911.03
2023-09-23T15:11:56.702Z,99917.22
2023-09-23T15:17:00.738Z,99913.53
2023-09-23T15:22:04.611Z,99921.13
2023-09-23T15:27:08.273Z,99917.44
2023-09-23T15:32:12.503Z,99919.28
2023-09-23T15:37:15.938Z,99916.06
2023-09-23T15:42:19.986Z,99923.94
2023-09-23T15:47:24.217Z,99929.13
2023-09-23T15:52:28.132Z,99932.47
2023-09-23T15:57:32.149Z,99937.84
2023-09-23T16:02:36.372Z,99949.41
2023-09-23T16:07:40.702Z,99944.72
2023-09-23T16:12:44.485Z,99941.00
2023-09-23T16:17:48.491Z,99941.59
2023-09-23T16:22:52.434Z,99929.22
2023-09-23T16:27:55.910Z,99940.41
2023-09-23T16:33:00.725Z,99948.88
2023-09-23T16:38:05.248Z,99950.31
2023-09-23T16:43:09.641Z,99949.72
2023-09-23T16:48:13.937Z,99948.50
2023-09-23T16:53:17.699Z,99967.72
2023-09-23T16:58:21.463Z,99991.28
2023-09-23T17:03:25.250Z,99985.88
2023-09-23T17:08:29.315Z,100004.06
2023-09-23T17:13:33.159Z,100015.59
2023-09-23T17:18:38.383Z,100023.06
2023-09-23T17:23:42.291Z,100038.72
2023-09-23T17:28:45.980Z,100043.66
2023-09-23T17:33:50.075Z,100056.50
2023-09-23T17:38:53.847Z,100051.31
2023-09-23T17:43:57.377Z,100033.75
2023-09-23T17:49:01.004Z,100032.13
2023-09-23T17:54:05.916Z,100034.81
2023-09-23T17:59:10.248Z,100024.31
2023-09-23T18:04:14.611Z,100005.97
2023-09-23T18:09:18.256Z,100014.84
2023-09-23T18:14:21.966Z,99995.63
2023-09-23T18:19:25.625Z,99988.84
2023-09-23T18:24:29.591Z,99986.41
2023-09-23T18:29:33.742Z,99977.72
2023-09-23T18:34:37.736Z,99973.59
2023-09-23T18:39:42.024Z,99965.78
2023-09-23T18:44:45.893Z,99961.47
2023-09-23T18:49:49.652Z,99954.06
2023-09-23T18:54:55.474Z,99955.31
2023-09-23T18:59:59.574Z,99936.13
2023-09-23T19:05:06.972Z,99954.28
2023-09-23T19:10:12.057Z,99964.41
2023-09-23T19:15:17.214Z,99964.59
2023-09-23T19:20:21.510Z,99968.13
2023-09-23T19:25:25.282Z,99991.41
2023-09-23T19:30:31.219Z,99999.66
2023-09-23T19:35:39.646Z,100012.66
2023-09-23T19:40:44.319Z,100007.09
2023-09-23T19:45:56.592Z,100016.56
2023-09-23T19:51:00.799Z,100016.78
2023-09-23T19:56:04.933Z,100021.94
2023-09-23T20:01:10.157Z,100012.25
2023-09-23T20:06:15.678Z,100013.69
2023-09-23T20:11:28.757Z,100004.63
2023-09-23T20:16:33.288Z,100010.81
2023-09-23T20:21:39.905Z,100007.09
2023-09-23T20:26:43.703Z,100006.09
2023-09-23T20:31:54.441Z,100012.25
2023-09-23T20:37:01.037Z,100010.78
2023-09-23T20:42:04.927Z,100010.34
2023-09-23T20:47:08.419Z,99999.03
2023-09-23T20:52:12.670Z,100006.03
2023-09-23T20:57:16.570Z,100009.94
2023-09-23T21:02:22.895Z,100016.94
2023-09-23T21:07:26.777Z,100021.88
2023-09-23T21:12:30.890Z,100005.81
2023-09-23T21:17:36.136Z,99992.63
2023-09-23T21:22:40.107Z,99959.25
2023-09-23T21:27:43.750Z,99967.69
2023-09-23T21:32:47.481Z,99963.16
2023-09-23T21:37:51.057Z,99960.06
2023-09-23T21:42:54.650Z,99965.41
2023-09-23T21:48:01.099Z,99974.03
2023-09-23T21:53:06.198Z,99978.16
2023-09-23T21:58:09.871Z,99960.03
2023-09-23T22:03:13.565Z,99957.97
2023-09-23T22:08:17.127Z,99967.47
2023-09-23T22:13:20.682Z,99958.41
2023-09-23T22:18:24.442Z,99954.50
2023-09-23T22:23:30.578Z,99959.84
2023-09-23T22:28:34.078Z,99959.44
2023-09-23T22:33:38.368Z,99961.69
2023-09-23T22:38:42.375Z,99958.84
2023-09-23T22:43:46.240Z,99971.41
2023-09-23T22:48:52.284Z,99966.66
2023-09-23T22:53:57.382Z,99966.28
2023-09-23T22:59:01.111Z,99970.00
2023-09-23T23:04:05.361Z,99984.00
2023-09-23T23:09:11.793Z,100009.72
2023-09-23T23:14:18.782Z,100045.81
2023-09-23T23:19:23.470Z,100058.56
2023-09-23T23:24:27.203Z,100049.69
2023-09-23T23:29:31.707Z,100049.50
2023-09-23T23:34:35.376Z,100051.16
2023-09-23T23:39:39.292Z,100057.72
2023-09-23T23:44:43.182Z,100048.88
2023-09-23T23:49:54.201Z,100026.22
2023-09-23T23:54:58.563Z,100004.00
